createdAt,value
2023-02-01T00:00:43.854Z,99802.56
2023-02-01T00:05:45.464Z,99806.59
2023-02-01T00:10:46.873Z,99794.84
2023-02-01T00:15:48.300Z,99802.91
2023-02-01T00:20:49.702Z,99804.13
2023-02-01T00:25:51.178Z,99802.22
2023-02-01T00:31:02.534Z,99796.94
2023-02-01T00:36:05.658Z,99802.13
2023-02-01T00:41:08.762Z,99795.59
2023-02-01T00:46:10.732Z,99804.97
2023-02-01T00:51:22.406Z,99801.06
2023-02-01T00:56:23.938Z,99800.56
2023-02-01T01:01:26.572Z,99813.06
2023-02-01T01:06:29.646Z,99804.13
2023-02-01T01:11:32.673Z,99817.81
2023-02-01T01:16:34.099Z,99822.09
2023-02-01T01:21:35.488Z,99814.22
2023-02-01T01:26:37.214Z,99804.97
2023-02-01T01:31:38.688Z,99798.09
2023-02-01T01:36:40.106Z,99809.31
2023-02-01T01:41:41.485Z,99808.28
2023-02-01T01:46:42.927Z,99794.53
2023-02-01T01:51:52.514Z,99799.50
2023-02-01T01:56:56.440Z,99787.97
2023-02-01T02:01:57.851Z,99782.25
2023-02-01T02:07:06.657Z,99791.53
2023-02-01T02:12:08.189Z,99790.47
2023-02-01T02:17:27.358Z,99778.84
2023-02-01T02:22:52.094Z,99762.06
2023-02-01T02:28:18.171Z,99759.50
2023-02-01T02:33:42.816Z,99770.09
2023-02-01T02:39:07.662Z,99781.59
2023-02-01T02:44:33.246Z,99766.28
2023-02-01T02:49:42.442Z,99751.28
2023-02-01T02:54:52.734Z,99751.03
2023-02-01T03:00:12.672Z,99753.69
2023-02-01T03:10:30.577Z,99766.59
2023-02-01T03:15:46.263Z,99756.50
2023-02-01T03:20:47.788Z,99779.47
2023-02-01T03:25:49.954Z,99770.44
2023-02-01T03:30:51.505Z,99765.47
2023-02-01T03:35:58.167Z,99756.50
2023-02-01T03:41:21.312Z,99756.44
2023-02-01T03:46:34.023Z,99759.50
2023-02-01T03:51:35.489Z,99750.13
2023-02-01T03:56:37.646Z,99752.91
2023-02-01T04:01:39.049Z,99749.63
2023-02-01T04:06:40.414Z,99727.75
2023-02-01T04:11:41.803Z,99736.28
2023-02-01T04:16:43.275Z,99732.38
2023-02-01T04:21:44.674Z,99731.06
2023-02-01T04:26:46.092Z,99724.50
2023-02-01T04:31:47.620Z,99716.81
2023-02-01T04:36:49.327Z,99717.31
2023-02-01T04:41:50.698Z,99714.25
2023-02-01T04:46:52.102Z,99703.97
2023-02-01T04:51:53.483Z,99710.53
2023-02-01T04:56:54.864Z,99688.59
2023-02-01T05:01:56.338Z,99677.66
2023-02-01T05:06:57.718Z,99670.84
2023-02-01T05:12:37.463Z,99656.63
2023-02-01T05:17:40.922Z,99646.31
2023-02-01T05:22:43.047Z,99645.75
2023-02-01T05:27:44.450Z,99635.59
2023-02-01T05:32:45.814Z,99631.00
2023-02-01T05:37:47.207Z,99640.03
2023-02-01T05:42:48.677Z,99628.84
2023-02-01T05:47:50.090Z,99643.38
2023-02-01T05:52:51.466Z,99647.00
2023-02-01T05:57:52.847Z,99639.81
2023-02-01T06:02:56.947Z,99633.56
2023-02-01T06:07:59.102Z,99633.88
2023-02-01T06:13:00.513Z,99636.63
2023-02-01T06:18:01.948Z,99635.78
2023-02-01T06:23:03.339Z,99637.72
2023-02-01T06:28:06.641Z,99639.66
2023-02-01T06:33:08.029Z,99644.56
2023-02-01T06:38:09.401Z,99630.31
2023-02-01T06:43:10.785Z,99643.59
2023-02-01T06:48:12.190Z,99628.59
2023-02-01T06:53:13.618Z,99633.41
2023-02-01T06:58:15.045Z,99630.44
2023-02-01T07:03:16.461Z,99606.19
2023-02-01T07:08:17.845Z,99619.38
2023-02-01T07:13:19.223Z,99609.25
2023-02-01T07:18:20.610Z,99597.44
2023-02-01T07:23:22.014Z,99610.88
2023-02-01T07:28:24.577Z,99615.03
2023-02-01T07:33:28.190Z,99605.69
2023-02-01T07:38:29.677Z,99592.34
2023-02-01T07:43:31.369Z,99594.47
2023-02-01T07:48:34.498Z,99581.63
2023-02-01T07:53:36.299Z,99576.75
2023-02-01T07:58:37.732Z,99572.59
2023-02-01T08:03:39.373Z,99572.91
2023-02-01T08:08:40.765Z,99574.31
2023-02-01T08:13:42.220Z,99568.78
2023-02-01T08:18:43.903Z,99569.09
2023-02-01T08:23:45.342Z,99577.56
2023-02-01T08:28:52.490Z,99559.28
2023-02-01T08:33:56.219Z,99543.69
2023-02-01T08:38:57.790Z,99525.88
2023-02-01T08:43:59.238Z,99534.94
2023-02-01T08:49:00.622Z,99545.03
2023-02-01T08:54:02.216Z,99533.91
2023-02-01T08:59:03.595Z,99529.78
2023-02-01T09:04:05.069Z,99534.09
2023-02-01T09:09:06.453Z,99511.66
2023-02-01T09:14:07.904Z,99509.53
2023-02-01T09:19:24.750Z,99520.47
2023-02-01T09:24:27.170Z,99526.75
2023-02-01T09:29:28.723Z,99533.34
2023-02-01T09:34:30.229Z,99533.84
2023-02-01T09:39:31.601Z,99522.91
2023-02-01T09:44:44.073Z,99539.06
2023-02-01T09:50:05.190Z,99552.19
2023-02-01T09:55:12.536Z,99560.91
2023-02-01T10:00:20.595Z,99568.84
2023-02-01T10:05:51.653Z,99579.84
2023-02-01T10:10:53.090Z,99577.38
2023-02-01T10:16:10.896Z,99591.84
2023-02-01T10:21:20.529Z,99598.72
2023-02-01T10:26:26.272Z,99593.28
2023-02-01T10:31:28.919Z,99587.22
2023-02-01T10:36:33.422Z,99598.47
2023-02-01T10:41:36.419Z,99599.03
2023-02-01T10:46:37.881Z,99591.38
2023-02-01T10:51:48.073Z,99597.41
2023-02-01T10:56:49.919Z,99595.78
2023-02-01T11:01:51.662Z,99608.63
2023-02-01T11:07:09.725Z,99616.56
2023-02-01T11:12:26.359Z,99618.53
2023-02-01T11:17:34.650Z,99642.03
2023-02-01T11:22:36.029Z,99612.44
2023-02-01T11:27:43.029Z,99608.88
2023-02-01T11:32:50.953Z,99604.22
2023-02-01T11:37:59.726Z,99601.56
2023-02-01T11:43:08.157Z,99600.66
2023-02-01T11:48:26.253Z,99579.59
2023-02-01T11:53:51.139Z,99594.69
2023-02-01T11:59:14.213Z,99586.19
2023-02-01T12:04:50.014Z,99566.53
2023-02-01T12:10:10.136Z,99564.06
2023-02-01T12:15:29.761Z,99568.38
2023-02-01T12:20:49.830Z,99567.78
2023-02-01T12:26:13.995Z,99555.00
2023-02-01T12:31:24.743Z,99552.56
2023-02-01T12:36:37.333Z,99543.28
2023-02-01T12:41:53.913Z,99561.03
2023-02-01T12:47:18.336Z,99557.22
2023-02-01T12:52:35.499Z,99555.31
2023-02-01T12:57:38.634Z,99550.03
2023-02-01T13:02:43.630Z,99551.41
2023-02-01T13:07:54.277Z,99533.41
2023-02-01T13:13:01.290Z,99535.31
2023-02-01T13:18:04.142Z,99546.84
2023-02-01T13:23:09.799Z,99548.44
2023-02-01T13:28:35.322Z,99536.66
2023-02-01T13:33:53.060Z,99529.03
2023-02-01T13:39:12.277Z,99518.91
2023-02-01T13:44:16.773Z,99510.16
2023-02-01T13:49:23.762Z,99503.31
2023-02-01T13:54:38.115Z,99498.41
2023-02-01T13:59:42.432Z,99491.00
2023-02-01T14:04:49.723Z,99491.50
2023-02-01T14:09:51.218Z,99493.72
2023-02-01T14:14:52.649Z,99486.91
2023-02-01T14:19:54.020Z,99490.72
2023-02-01T14:24:56.065Z,99492.13
2023-02-01T14:30:00.322Z,99484.44
2023-02-01T14:35:02.645Z,99486.94
2023-02-01T14:40:11.359Z,99476.28
2023-02-01T14:45:24.866Z,99487.75
2023-02-01T14:50:38.376Z,99477.84
2023-02-01T14:55:44.147Z,99498.66
2023-02-01T15:00:53.084Z,99484.34
2023-02-01T15:05:58.722Z,99481.88
2023-02-01T15:11:01.620Z,99477.19
2023-02-01T15:16:06.497Z,99473.34
2023-02-01T15:21:28.922Z,99466.44
2023-02-01T15:26:34.708Z,99456.31
2023-02-01T15:31:38.797Z,99436.28
2023-02-01T15:36:43.843Z,99436.00
2023-02-01T15:41:54.519Z,99415.81
2023-02-01T15:46:55.991Z,99394.44
2023-02-01T15:51:58.706Z,99389.28
2023-02-01T15:57:02.181Z,99390.56
2023-02-01T16:02:03.837Z,99389.78
2023-02-01T16:07:05.515Z,99391.94
2023-02-01T16:12:38.997Z,99372.53
2023-02-01T16:17:40.676Z,99371.13
2023-02-01T16:22:42.055Z,99354.13
2023-02-01T16:27:43.440Z,99342.66
2023-02-01T16:32:44.885Z,99333.09
2023-02-01T16:37:46.377Z,99331.72
2023-02-01T16:42:48.617Z,99374.38
2023-02-01T16:47:52.836Z,99376.78
2023-02-01T16:52:54.389Z,99374.31
2023-02-01T16:57:55.822Z,99383.94
2023-02-01T17:02:57.205Z,99436.41
2023-02-01T17:08:00.449Z,99494.28
2023-02-01T17:13:02.855Z,99527.66
2023-02-01T17:18:04.395Z,99414.19
2023-02-01T17:23:05.951Z,99418.81
2023-02-01T17:28:07.511Z,99443.78
2023-02-01T17:33:34.131Z,99453.28
2023-02-01T17:38:37.714Z,99455.75
2023-02-01T17:43:39.338Z,99476.22
2023-02-01T17:48:40.816Z,99489.38
2023-02-01T17:53:42.202Z,99489.06
2023-02-01T17:58:43.634Z,99496.22
2023-02-01T18:03:45.131Z,99515.94
2023-02-01T18:08:46.615Z,99518.28
2023-02-01T18:13:48.603Z,99520.84
2023-02-01T18:18:50.210Z,99530.69
2023-02-01T18:23:51.706Z,99527.38
2023-02-01T18:28:53.094Z,99542.91
2023-02-01T18:33:55.307Z,99526.31
2023-02-01T18:38:57.649Z,99529.88
2023-02-01T18:43:59.039Z,99530.09
2023-02-01T18:49:00.430Z,99532.75
2023-02-01T18:54:01.906Z,99526.25
2023-02-01T18:59:03.374Z,99525.44
2023-02-01T19:04:06.642Z,99511.28
2023-02-01T19:09:14.865Z,99514.53
2023-02-01T19:14:16.733Z,99519.75
2023-02-01T19:19:18.147Z,99518.66
2023-02-01T19:24:19.547Z,99516.44
2023-02-01T19:29:20.949Z,99513.97
2023-02-01T19:34:22.375Z,99521.34
2023-02-01T19:39:24.929Z,99527.97
2023-02-01T19:44:28.036Z,99539.13
2023-02-01T19:49:29.419Z,99541.03
2023-02-01T19:54:30.832Z,99540.81
2023-02-01T19:59:32.273Z,99545.13
2023-02-01T20:04:32.818Z,99534.50
2023-02-01T20:09:35.332Z,99540.81
2023-02-01T20:14:37.000Z,99535.84
2023-02-01T20:19:38.417Z,99562.03
2023-02-01T20:24:39.829Z,99560.44
2023-02-01T20:29:42.182Z,99577.69
2023-02-01T20:34:43.835Z,99599.84
2023-02-01T20:39:45.220Z,99614.94
2023-02-01T20:44:46.629Z,99617.28
2023-02-01T20:49:48.022Z,99607.47
2023-02-01T20:54:49.449Z,99598.22
2023-02-01T20:59:51.186Z,99604.69
2023-02-01T21:04:52.649Z,99598.72
2023-02-01T21:09:54.027Z,99595.34
2023-02-01T21:14:55.471Z,99592.97
2023-02-01T21:19:56.905Z,99598.16
2023-02-01T21:24:58.282Z,99604.75
2023-02-01T21:29:59.746Z,99592.47
2023-02-01T21:35:01.133Z,99597.38
2023-02-01T21:40:02.581Z,99604.22
2023-02-01T21:45:04.072Z,99590.84
2023-02-01T21:50:17.153Z,99605.25
2023-02-01T21:55:18.604Z,99611.50
2023-02-01T22:00:20.150Z,99616.19
2023-02-01T22:05:22.307Z,99600.34
2023-02-01T22:10:24.934Z,99614.78
2023-02-01T22:15:29.042Z,99615.16
2023-02-01T22:20:30.452Z,99607.47
2023-02-01T22:25:31.939Z,99617.34
2023-02-01T22:30:33.332Z,99604.75
2023-02-01T22:35:34.731Z,99598.66
2023-02-01T22:40:36.106Z,99614.47
2023-02-01T22:45:37.689Z,99620.31
2023-02-01T22:50:39.119Z,99620.63
2023-02-01T22:55:45.294Z,99603.91
2023-02-01T23:00:46.674Z,99602.47
2023-02-01T23:05:48.073Z,99605.75
2023-02-01T23:10:49.597Z,99610.47
2023-02-01T23:15:50.998Z,99618.09
2023-02-01T23:20:53.314Z,99612.44
2023-02-01T23:25:54.722Z,99621.41
2023-02-01T23:30:56.185Z,99607.25
2023-02-01T23:35:59.227Z,99613.50
2023-02-01T23:41:02.005Z,99630.75
2023-02-01T23:46:03.594Z,99619.69
2023-02-01T23:51:05.252Z,99631.00
2023-02-01T23:56:06.997Z,99625.03
